sensor_id;sensor_type;location;lat;lon;timestamp;pressure;altitude;pressure_sealevel;temperature;humidity
25420;BME280;13354;48.174;11.566;2023-04-24T00:02:15;94811.31;;;11.70;93.76
25420;BME280;13354;48.174;11.566;2023-04-24T00:04:41;94821.94;;;11.70;93.27
25420;BME280;13354;48.174;11.566;2023-04-24T00:07:09;94805.09;;;11.82;91.74
25420;BME280;13354;48.174;11.566;2023-04-24T00:09:34;94812.88;;;11.77;91.57
25420;BME280;13354;48.174;11.566;2023-04-24T00:12:00;94809.41;;;11.77;90.92
25420;BME280;13354;48.174;11.566;2023-04-24T00:14:27;94805.34;;;11.74;91.62
25420;BME280;13354;48.174;11.566;2023-04-24T00:16:52;94803.59;;;11.68;90.24
25420;BME280;13354;48.174;11.566;2023-04-24T00:19:18;94801.09;;;11.73;89.04
25420;BME280;13354;48.174;11.566;2023-04-24T00:21:46;94807.88;;;11.69;89.29
25420;BME280;13354;48.174;11.566;2023-04-24T00:24:11;94808.19;;;11.79;90.09
25420;BME280;13354;48.174;11.566;2023-04-24T00:26:36;94797.88;;;11.71;89.40
25420;BME280;13354;48.174;11.566;2023-04-24T00:29:01;94804.34;;;11.75;89.24
25420;BME280;13354;48.174;11.566;2023-04-24T00:31:27;94804.69;;;11.60;90.50
25420;BME280;13354;48.174;11.566;2023-04-24T00:33:52;94802.25;;;11.59;88.89
25420;BME280;13354;48.174;11.566;2023-04-24T00:36:17;94796.81;;;11.54;88.12
25420;BME280;13354;48.174;11.566;2023-04-24T00:38:44;94806.91;;;11.45;88.21
25420;BME280;13354;48.174;11.566;2023-04-24T00:41:09;94811.72;;;11.48;88.31
25420;BME280;13354;48.174;11.566;2023-04-24T00:43:35;94811.06;;;11.34;89.26
25420;BME280;13354;48.174;11.566;2023-04-24T00:46:00;94800.25;;;11.36;91.02
25420;BME280;13354;48.174;11.566;2023-04-24T00:48:26;94801.03;;;11.36;91.43
25420;BME280;13354;48.174;11.566;2023-04-24T00:50:52;94808.94;;;11.43;89.61
25420;BME280;13354;48.174;11.566;2023-04-24T00:53:17;94803.41;;;11.45;88.76
25420;BME280;13354;48.174;11.566;2023-04-24T00:55:43;94799.56;;;11.41;89.97
25420;BME280;13354;48.174;11.566;2023-04-24T00:58:08;94801.00;;;11.43;90.05
25420;BME280;13354;48.174;11.566;2023-04-24T01:00:33;94800.31;;;11.48;87.83
25420;BME280;13354;48.174;11.566;2023-04-24T01:02:59;94798.72;;;11.47;87.23
25420;BME280;13354;48.174;11.566;2023-04-24T01:05:26;94808.78;;;11.38;87.40
25420;BME280;13354;48.174;11.566;2023-04-24T01:07:52;94806.41;;;11.30;87.42
25420;BME280;13354;48.174;11.566;2023-04-24T01:10:17;94805.16;;;11.32;87.93
25420;BME280;13354;48.174;11.566;2023-04-24T01:12:42;94798.06;;;11.26;87.64
25420;BME280;13354;48.174;11.566;2023-04-24T01:15:08;94804.06;;;11.40;86.93
25420;BME280;13354;48.174;11.566;2023-04-24T01:17:33;94803.31;;;11.33;87.07
25420;BME280;13354;48.174;11.566;2023-04-24T01:20:02;94799.72;;;11.27;86.77
25420;BME280;13354;48.174;11.566;2023-04-24T01:22:30;94791.06;;;11.39;84.93
25420;BME280;13354;48.174;11.566;2023-04-24T01:24:55;94788.22;;;11.33;85.98
25420;BME280;13354;48.174;11.566;2023-04-24T01:27:21;94790.81;;;11.40;84.12
25420;BME280;13354;48.174;11.566;2023-04-24T01:29:46;94789.03;;;11.34;83.56
25420;BME280;13354;48.174;11.566;2023-04-24T01:32:14;94790.22;;;11.20;84.42
25420;BME280;13354;48.174;11.566;2023-04-24T01:34:40;94785.72;;;11.20;85.16
25420;BME280;13354;48.174;11.566;2023-04-24T01:37:05;94785.88;;;11.25;84.63
25420;BME280;13354;48.174;11.566;2023-04-24T01:39:30;94784.53;;;11.16;84.56
25420;BME280;13354;48.174;11.566;2023-04-24T01:41:56;94778.78;;;11.19;84.94
25420;BME280;13354;48.174;11.566;2023-04-24T01:44:21;94783.66;;;11.22;84.18
25420;BME280;13354;48.174;11.566;2023-04-24T01:46:48;94783.81;;;11.27;83.15
25420;BME280;13354;48.174;11.566;2023-04-24T01:49:13;94792.09;;;11.12;83.69
25420;BME280;13354;48.174;11.566;2023-04-24T01:51:39;94790.63;;;11.17;83.95
25420;BME280;13354;48.174;11.566;2023-04-24T01:54:04;94785.78;;;11.13;84.09
25420;BME280;13354;48.174;11.566;2023-04-24T01:56:30;94782.09;;;11.15;83.48
25420;BME280;13354;48.174;11.566;2023-04-24T01:58:57;94787.31;;;11.21;82.21
25420;BME280;13354;48.174;11.566;2023-04-24T02:01:25;94786.09;;;10.99;83.60
25420;BME280;13354;48.174;11.566;2023-04-24T02:03:51;94782.38;;;11.06;83.63
25420;BME280;13354;48.174;11.566;2023-04-24T02:06:17;94786.03;;;11.05;83.72
25420;BME280;13354;48.174;11.566;2023-04-24T02:08:42;94780.31;;;11.08;84.76
25420;BME280;13354;48.174;11.566;2023-04-24T02:11:10;94789.53;;;10.99;83.60
25420;BME280;13354;48.174;11.566;2023-04-24T02:13:35;94794.03;;;10.99;83.34
25420;BME280;13354;48.174;11.566;2023-04-24T02:16:01;94781.44;;;10.94;83.92
25420;BME280;13354;48.174;11.566;2023-04-24T02:18:26;94786.47;;;11.02;83.78
25420;BME280;13354;48.174;11.566;2023-04-24T02:20:51;94787.50;;;11.01;83.45
25420;BME280;13354;48.174;11.566;2023-04-24T02:23:16;94779.56;;;11.01;83.88
25420;BME280;13354;48.174;11.566;2023-04-24T02:25:42;94782.63;;;10.98;83.36
25420;BME280;13354;48.174;11.566;2023-04-24T02:28:07;94778.97;;;10.99;83.38
25420;BME280;13354;48.174;11.566;2023-04-24T02:30:32;94779.63;;;10.95;84.40
25420;BME280;13354;48.174;11.566;2023-04-24T02:32:57;94773.13;;;10.91;83.45
25420;BME280;13354;48.174;11.566;2023-04-24T02:35:22;94780.09;;;11.10;83.40
25420;BME280;13354;48.174;11.566;2023-04-24T02:37:48;94782.78;;;11.03;83.37
25420;BME280;13354;48.174;11.566;2023-04-24T02:40:13;94782.59;;;11.05;82.00
25420;BME280;13354;48.174;11.566;2023-04-24T02:42:38;94779.72;;;11.06;82.39
25420;BME280;13354;48.174;11.566;2023-04-24T02:45:03;94782.38;;;11.06;82.77
25420;BME280;13354;48.174;11.566;2023-04-24T02:47:30;94782.03;;;10.96;83.14
25420;BME280;13354;48.174;11.566;2023-04-24T02:49:55;94792.09;;;10.87;84.39
25420;BME280;13354;48.174;11.566;2023-04-24T02:52:20;94785.72;;;10.95;83.38
25420;BME280;13354;48.174;11.566;2023-04-24T02:54:45;94785.00;;;10.81;84.53
25420;BME280;13354;48.174;11.566;2023-04-24T02:57:10;94789.63;;;10.86;84.65
25420;BME280;13354;48.174;11.566;2023-04-24T02:59:36;94783.13;;;10.88;85.11
25420;BME280;13354;48.174;11.566;2023-04-24T03:02:01;94783.81;;;10.77;85.05
25420;BME280;13354;48.174;11.566;2023-04-24T03:04:26;94782.56;;;10.80;85.92
25420;BME280;13354;48.174;11.566;2023-04-24T03:06:51;94786.84;;;10.81;86.38
25420;BME280;13354;48.174;11.566;2023-04-24T03:09:20;94776.50;;;10.73;86.80
25420;BME280;13354;48.174;11.566;2023-04-24T03:11:45;94788.13;;;10.72;87.20
25420;BME280;13354;48.174;11.566;2023-04-24T03:14:10;94776.00;;;10.57;87.87
25420;BME280;13354;48.174;11.566;2023-04-24T03:16:35;94786.59;;;10.57;87.32
25420;BME280;13354;48.174;11.566;2023-04-24T03:19:00;94781.47;;;10.62;88.24
25420;BME280;13354;48.174;11.566;2023-04-24T03:21:25;94786.38;;;10.59;88.01
25420;BME280;13354;48.174;11.566;2023-04-24T03:23:51;94781.84;;;10.66;87.03
25420;BME280;13354;48.174;11.566;2023-04-24T03:26:17;94790.31;;;10.50;87.80
25420;BME280;13354;48.174;11.566;2023-04-24T03:28:42;94792.56;;;10.46;87.88
25420;BME280;13354;48.174;11.566;2023-04-24T03:31:07;94789.97;;;10.39;90.31
25420;BME280;13354;48.174;11.566;2023-04-24T03:33:32;94786.72;;;10.31;91.75
25420;BME280;13354;48.174;11.566;2023-04-24T03:35:58;94784.66;;;10.39;92.11
25420;BME280;13354;48.174;11.566;2023-04-24T03:38:23;94789.97;;;10.39;91.17
25420;BME280;13354;48.174;11.566;2023-04-24T03:40:48;94781.44;;;10.31;92.48
25420;BME280;13354;48.174;11.566;2023-04-24T03:43:13;94792.66;;;10.26;94.11
25420;BME280;13354;48.174;11.566;2023-04-24T03:45:38;94792.41;;;10.34;93.34
25420;BME280;13354;48.174;11.566;2023-04-24T03:48:04;94788.34;;;10.38;92.74
25420;BME280;13354;48.174;11.566;2023-04-24T03:50:29;94790.59;;;10.35;94.05
25420;BME280;13354;48.174;11.566;2023-04-24T03:52:54;94787.38;;;10.26;94.85
25420;BME280;13354;48.174;11.566;2023-04-24T03:55:20;94778.22;;;10.29;93.80
25420;BME280;13354;48.174;11.566;2023-04-24T03:57:45;94783.91;;;10.26;94.58
25420;BME280;13354;48.174;11.566;2023-04-24T04:00:10;94784.47;;;10.34;94.42
25420;BME280;13354;48.174;11.566;2023-04-24T04:02:36;94774.47;;;10.43;94.45
25420;BME280;13354;48.174;11.566;2023-04-24T04:05:01;94777.16;;;10.36;92.88
25420;BME280;13354;48.174;11.566;2023-04-24T04:07:27;94774.63;;;10.48;92.72
25420;BME280;13354;48.174;11.566;2023-04-24T04:09:52;94772.09;;;10.60;92.26
25420;BME280;13354;48.174;11.566;2023-04-24T04:12:17;94768.53;;;10.48;91.40
25420;BME280;13354;48.174;11.566;2023-04-24T04:14:42;94774.56;;;10.61;91.41
25420;BME280;13354;48.174;11.566;2023-04-24T04:17:07;94769.34;;;10.48;91.05
25420;BME280;13354;48.174;11.566;2023-04-24T04:19:33;94766.88;;;10.53;90.14
25420;BME280;13354;48.174;11.566;2023-04-24T04:21:58;94768.78;;;10.39;90.30
25420;BME280;13354;48.174;11.566;2023-04-24T04:24:24;94779.97;;;10.42;91.12
25420;BME280;13354;48.174;11.566;2023-04-24T04:26:49;94766.72;;;10.42;91.30
25420;BME280;13354;48.174;11.566;2023-04-24T04:29:16;94770.38;;;10.47;90.33
25420;BME280;13354;48.174;11.566;2023-04-24T04:31:41;94775.44;;;10.49;91.42
25420;BME280;13354;48.174;11.566;2023-04-24T04:34:06;94780.56;;;10.44;91.11
25420;BME280;13354;48.174;11.566;2023-04-24T04:36:32;94777.53;;;10.40;90.54
25420;BME280;13354;48.174;11.566;2023-04-24T04:39:01;94781.78;;;10.41;90.93
25420;BME280;13354;48.174;11.566;2023-04-24T04:41:27;94787.31;;;10.39;90.10
25420;BME280;13354;48.174;11.566;2023-04-24T04:43:52;94789.53;;;10.43;90.49
25420;BME280;13354;48.174;11.566;2023-04-24T04:46:18;94793.44;;;10.33;89.99
25420;BME280;13354;48.174;11.566;2023-04-24T04:48:43;94800.97;;;10.36;90.71
25420;BME280;13354;48.174;11.566;2023-04-24T04:51:08;94797.88;;;10.46;90.80
25420;BME280;13354;48.174;11.566;2023-04-24T04:53:33;94799.91;;;10.44;89.63
25420;BME280;13354;48.174;11.566;2023-04-24T04:55:59;94803.38;;;10.38;89.05
25420;BME280;13354;48.174;11.566;2023-04-24T04:58:25;94806.03;;;10.38;89.26
25420;BME280;13354;48.174;11.566;2023-04-24T05:00:50;94800.16;;;10.36;89.29
25420;BME280;13354;48.174;11.566;2023-04-24T05:03:15;94804.66;;;10.29;90.13
25420;BME280;13354;48.174;11.566;2023-04-24T05:05:41;94804.00;;;10.40;88.82
25420;BME280;13354;48.174;11.566;2023-04-24T05:08:09;94804.59;;;10.42;88.07
25420;BME280;13354;48.174;11.566;2023-04-24T05:10:34;94812.38;;;10.30;88.88
25420;BME280;13354;48.174;11.566;2023-04-24T05:13:01;94812.09;;;10.45;88.44
25420;BME280;13354;48.174;11.566;2023-04-24T05:15:27;94814.16;;;10.43;87.84
25420;BME280;13354;48.174;11.566;2023-04-24T05:17:52;94816.00;;;10.43;87.34
25420;BME280;13354;48.174;11.566;2023-04-24T05:20:17;94814.56;;;10.40;88.35
25420;BME280;13354;48.174;11.566;2023-04-24T05:22:42;94817.78;;;10.49;86.85
25420;BME280;13354;48.174;11.566;2023-04-24T05:25:08;94815.31;;;10.54;86.94
25420;BME280;13354;48.174;11.566;2023-04-24T05:27:33;94816.19;;;10.41;87.06
25420;BME280;13354;48.174;11.566;2023-04-24T05:29:58;94818.81;;;10.48;85.42
25420;BME280;13354;48.174;11.566;2023-04-24T05:32:24;94823.53;;;10.46;86.16
25420;BME280;13354;48.174;11.566;2023-04-24T05:34:49;94823.28;;;10.47;85.58
25420;BME280;13354;48.174;11.566;2023-04-24T05:37:15;94822.09;;;10.43;87.44
25420;BME280;13354;48.174;11.566;2023-04-24T05:39:40;94822.25;;;10.48;85.24
25420;BME280;13354;48.174;11.566;2023-04-24T05:42:06;94821.44;;;10.54;85.38
25420;BME280;13354;48.174;11.566;2023-04-24T05:44:31;94830.94;;;10.62;84.96
25420;BME280;13354;48.174;11.566;2023-04-24T05:46:57;94827.88;;;10.65;85.58
25420;BME280;13354;48.174;11.566;2023-04-24T05:49:22;94827.06;;;10.64;83.84
25420;BME280;13354;48.174;11.566;2023-04-24T05:51:47;94834.44;;;10.56;85.17
25420;BME280;13354;48.174;11.566;2023-04-24T05:54:12;94827.09;;;10.58;84.92
25420;BME280;13354;48.174;11.566;2023-04-24T05:56:38;94832.13;;;10.66;85.58
25420;BME280;13354;48.174;11.566;2023-04-24T05:59:03;94830.53;;;10.65;84.12
25420;BME280;13354;48.174;11.566;2023-04-24T06:01:29;94834.38;;;10.69;84.80
25420;BME280;13354;48.174;11.566;2023-04-24T06:03:54;94831.09;;;10.67;83.77
25420;BME280;13354;48.174;11.566;2023-04-24T06:06:19;94836.97;;;10.76;84.48
25420;BME280;13354;48.174;11.566;2023-04-24T06:08:45;94831.84;;;10.81;84.69
25420;BME280;13354;48.174;11.566;2023-04-24T06:11:10;94833.69;;;10.80;83.91
25420;BME280;13354;48.174;11.566;2023-04-24T06:13:35;94834.16;;;11.02;83.19
25420;BME280;13354;48.174;11.566;2023-04-24T06:16:01;94841.06;;;11.03;82.72
25420;BME280;13354;48.174;11.566;2023-04-24T06:18:26;94839.31;;;10.91;82.57
25420;BME280;13354;48.174;11.566;2023-04-24T06:20:51;94838.63;;;11.02;82.21
25420;BME280;13354;48.174;11.566;2023-04-24T06:23:17;94838.97;;;11.12;81.44
25420;BME280;13354;48.174;11.566;2023-04-24T06:25:42;94834.03;;;11.16;82.27
25420;BME280;13354;48.174;11.566;2023-04-24T06:28:07;94839.03;;;11.05;81.81
25420;BME280;13354;48.174;11.566;2023-04-24T06:30:32;94835.75;;;11.03;82.01
25420;BME280;13354;48.174;11.566;2023-04-24T06:32:57;94845.06;;;11.12;80.85
25420;BME280;13354;48.174;11.566;2023-04-24T06:35:23;94851.50;;;10.98;82.15
25420;BME280;13354;48.174;11.566;2023-04-24T06:37:48;94854.31;;;11.03;81.31
25420;BME280;13354;48.174;11.566;2023-04-24T06:40:13;94849.88;;;10.97;82.57
25420;BME280;13354;48.174;11.566;2023-04-24T06:42:39;94851.50;;;10.98;80.78
25420;BME280;13354;48.174;11.566;2023-04-24T06:45:04;94845.13;;;11.06;80.87
25420;BME280;13354;48.174;11.566;2023-04-24T06:47:30;94854.31;;;11.03;79.35
25420;BME280;13354;48.174;11.566;2023-04-24T06:49:55;94857.72;;;11.10;80.12
25420;BME280;13354;48.174;11.566;2023-04-24T06:52:21;94858.31;;;11.12;78.84
25420;BME280;13354;48.174;11.566;2023-04-24T06:54:46;94864.47;;;11.06;79.75
25420;BME280;13354;48.174;11.566;2023-04-24T06:57:11;94868.22;;;11.24;79.46
25420;BME280;13354;48.174;11.566;2023-04-24T06:59:37;94865.88;;;11.34;78.44
25420;BME280;13354;48.174;11.566;2023-04-24T07:02:02;94865.78;;;11.47;77.99
25420;BME280;13354;48.174;11.566;2023-04-24T07:04:28;94852.69;;;11.52;76.74
25420;BME280;13354;48.174;11.566;2023-04-24T07:06:53;94858.53;;;11.61;77.08
25420;BME280;13354;48.174;11.566;2023-04-24T07:09:23;94872.69;;;11.73;76.21
25420;BME280;13354;48.174;11.566;2023-04-24T07:11:49;94864.53;;;11.75;75.56
25420;BME280;13354;48.174;11.566;2023-04-24T07:14:14;94856.47;;;11.81;75.45
25420;BME280;13354;48.174;11.566;2023-04-24T07:16:40;94865.31;;;12.00;74.38
25420;BME280;13354;48.174;11.566;2023-04-24T07:19:05;94855.34;;;11.96;73.11
25420;BME280;13354;48.174;11.566;2023-04-24T07:21:31;94869.81;;;11.75;74.44
25420;BME280;13354;48.174;11.566;2023-04-24T07:23:57;94869.88;;;11.68;74.47
25420;BME280;13354;48.174;11.566;2023-04-24T07:26:22;94866.75;;;11.53;75.62
25420;BME280;13354;48.174;11.566;2023-04-24T07:28:47;94876.06;;;11.62;75.13
25420;BME280;13354;48.174;11.566;2023-04-24T07:31:12;94884.75;;;11.69;74.76
25420;BME280;13354;48.174;11.566;2023-04-24T07:33:37;94882.53;;;11.66;74.79
25420;BME280;13354;48.174;11.566;2023-04-24T07:36:03;94883.72;;;11.70;75.86
25420;BME280;13354;48.174;11.566;2023-04-24T07:38:32;94883.16;;;11.93;75.21
25420;BME280;13354;48.174;11.566;2023-04-24T07:40:57;94882.84;;;12.01;75.01
25420;BME280;13354;48.174;11.566;2023-04-24T07:43:22;94886.44;;;11.89;74.97
25420;BME280;13354;48.174;11.566;2023-04-24T07:45:48;94885.25;;;11.84;74.12
25420;BME280;13354;48.174;11.566;2023-04-24T07:48:14;94891.47;;;11.97;74.65
25420;BME280;13354;48.174;11.566;2023-04-24T07:50:41;94887.41;;;12.13;73.23
25420;BME280;13354;48.174;11.566;2023-04-24T07:53:06;94899.56;;;11.77;73.66
25420;BME280;13354;48.174;11.566;2023-04-24T07:55:31;94894.41;;;11.64;74.37
25420;BME280;13354;48.174;11.566;2023-04-24T07:57:56;94895.84;;;11.84;74.49
25420;BME280;13354;48.174;11.566;2023-04-24T08:00:22;94900.31;;;11.91;74.34
25420;BME280;13354;48.174;11.566;2023-04-24T08:02:47;94898.69;;;11.90;73.26
25420;BME280;13354;48.174;11.566;2023-04-24T08:05:12;94900.00;;;11.99;73.50
25420;BME280;13354;48.174;11.566;2023-04-24T08:07:37;94897.91;;;11.82;74.20
25420;BME280;13354;48.174;11.566;2023-04-24T08:10:03;94897.22;;;11.94;73.61
25420;BME280;13354;48.174;11.566;2023-04-24T08:12:29;94902.88;;;11.97;73.63
25420;BME280;13354;48.174;11.566;2023-04-24T08:14:54;94905.75;;;11.96;71.81
25420;BME280;13354;48.174;11.566;2023-04-24T08:17:19;94906.88;;;12.06;72.08
25420;BME280;13354;48.174;11.566;2023-04-24T08:19:45;94907.31;;;12.03;72.28
25420;BME280;13354;48.174;11.566;2023-04-24T08:22:13;94909.97;;;11.78;72.62
25420;BME280;13354;48.174;11.566;2023-04-24T08:24:38;94911.59;;;11.54;74.09
25420;BME280;13354;48.174;11.566;2023-04-24T08:27:04;94904.63;;;11.60;73.73
25420;BME280;13354;48.174;11.566;2023-04-24T08:29:29;94917.13;;;11.53;74.49
25420;BME280;13354;48.174;11.566;2023-04-24T08:31:54;94919.50;;;11.61;75.86
25420;BME280;13354;48.174;11.566;2023-04-24T08:34:20;94930.00;;;11.49;77.00
25420;BME280;13354;48.174;11.566;2023-04-24T08:36:45;94936.03;;;11.31;78.30
25420;BME280;13354;48.174;11.566;2023-04-24T08:39:10;94938.47;;;11.33;79.24
25420;BME280;13354;48.174;11.566;2023-04-24T08:41:36;94933.38;;;11.31;80.69
25420;BME280;13354;48.174;11.566;2023-04-24T08:44:02;94940.53;;;11.31;81.12
25420;BME280;13354;48.174;11.566;2023-04-24T08:46:28;94945.69;;;11.19;80.56
25420;BME280;13354;48.174;11.566;2023-04-24T08:48:54;94943.00;;;11.26;79.03
25420;BME280;13354;48.174;11.566;2023-04-24T08:51:20;94944.78;;;11.32;75.45
25420;BME280;13354;48.174;11.566;2023-04-24T08:53:46;94952.09;;;11.36;72.43
25420;BME280;13354;48.174;11.566;2023-04-24T08:56:12;94951.03;;;11.44;71.44
25420;BME280;13354;48.174;11.566;2023-04-24T08:58:38;94953.66;;;11.44;69.93
25420;BME280;13354;48.174;11.566;2023-04-24T09:01:03;94956.13;;;11.46;67.66
25420;BME280;13354;48.174;11.566;2023-04-24T09:03:29;94966.72;;;11.46;69.53
25420;BME280;13354;48.174;11.566;2023-04-24T09:05:55;94969.19;;;11.41;66.99
25420;BME280;13354;48.174;11.566;2023-04-24T09:08:23;94979.41;;;11.37;67.33
25420;BME280;13354;48.174;11.566;2023-04-24T09:10:48;94978.31;;;11.20;66.57
25420;BME280;13354;48.174;11.566;2023-04-24T09:13:14;94975.03;;;11.18;66.52
25420;BME280;13354;48.174;11.566;2023-04-24T09:15:39;94972.81;;;11.15;66.74
25420;BME280;13354;48.174;11.566;2023-04-24T09:18:05;94963.84;;;11.16;67.47
25420;BME280;13354;48.174;11.566;2023-04-24T09:20:30;94963.88;;;11.41;66.02
25420;BME280;13354;48.174;11.566;2023-04-24T09:22:56;94960.63;;;11.45;66.15
25420;BME280;13354;48.174;11.566;2023-04-24T09:25:22;94967.91;;;11.50;66.10
25420;BME280;13354;48.174;11.566;2023-04-24T09:27:47;94971.53;;;11.55;66.57
25420;BME280;13354;48.174;11.566;2023-04-24T09:30:12;94964.47;;;11.49;66.14
25420;BME280;13354;48.174;11.566;2023-04-24T09:32:38;94970.72;;;11.55;65.63
25420;BME280;13354;48.174;11.566;2023-04-24T09:35:07;94967.72;;;11.76;64.68
25420;BME280;13354;48.174;11.566;2023-04-24T09:37:43;94962.50;;;11.63;62.89
25420;BME280;13354;48.174;11.566;2023-04-24T09:40:13;94973.50;;;11.67;61.97
25420;BME280;13354;48.174;11.566;2023-04-24T09:42:39;94974.56;;;11.59;62.30
25420;BME280;13354;48.174;11.566;2023-04-24T09:45:08;94966.09;;;11.75;62.88
25420;BME280;13354;48.174;11.566;2023-04-24T09:47:37;94977.75;;;11.99;63.52
25420;BME280;13354;48.174;11.566;2023-04-24T09:50:15;94971.78;;;11.79;62.36
25420;BME280;13354;48.174;11.566;2023-04-24T09:52:44;94966.13;;;12.00;62.52
25420;BME280;13354;48.174;11.566;2023-04-24T09:55:10;94972.44;;;11.99;61.81
25420;BME280;13354;48.174;11.566;2023-04-24T09:57:36;94975.78;;;12.13;61.40
25420;BME280;13354;48.174;11.566;2023-04-24T10:00:11;94971.91;;;12.34;61.46
25420;BME280;13354;48.174;11.566;2023-04-24T10:02:36;94955.25;;;12.27;60.95
25420;BME280;13354;48.174;11.566;2023-04-24T10:05:02;94947.06;;;12.28;60.96
25420;BME280;13354;48.174;11.566;2023-04-24T10:07:27;94942.06;;;12.39;60.87
25420;BME280;13354;48.174;11.566;2023-04-24T10:09:52;94954.53;;;12.56;60.46
25420;BME280;13354;48.174;11.566;2023-04-24T10:12:18;94974.47;;;12.41;60.81
25420;BME280;13354;48.174;11.566;2023-04-24T10:14:44;94961.06;;;12.54;59.86
25420;BME280;13354;48.174;11.566;2023-04-24T10:17:10;94966.38;;;12.54;60.26
25420;BME280;13354;48.174;11.566;2023-04-24T10:19:35;94963.97;;;12.52;61.28
25420;BME280;13354;48.174;11.566;2023-04-24T10:22:02;94960.63;;;12.57;61.28
25420;BME280;13354;48.174;11.566;2023-04-24T10:24:28;94961.88;;;12.54;61.86
25420;BME280;13354;48.174;11.566;2023-04-24T10:26:54;94955.63;;;12.67;62.46
25420;BME280;13354;48.174;11.566;2023-04-24T10:29:19;94950.53;;;12.66;62.06
25420;BME280;13354;48.174;11.566;2023-04-24T10:31:46;94955.09;;;12.77;62.42
25420;BME280;13354;48.174;11.566;2023-04-24T10:34:11;94953.47;;;12.76;61.56
25420;BME280;13354;48.174;11.566;2023-04-24T10:36:38;94943.66;;;12.76;61.99
25420;BME280;13354;48.174;11.566;2023-04-24T10:39:06;94952.56;;;13.00;61.61
25420;BME280;13354;48.174;11.566;2023-04-24T10:41:33;94945.31;;;13.08;61.78
25420;BME280;13354;48.174;11.566;2023-04-24T10:44:12;94949.97;;;12.94;61.73
25420;BME280;13354;48.174;11.566;2023-04-24T10:46:38;94952.50;;;12.89;61.04
25420;BME280;13354;48.174;11.566;2023-04-24T10:49:05;94963.63;;;12.97;62.38
25420;BME280;13354;48.174;11.566;2023-04-24T10:54:28;95029.16;;;11.67;74.43
25420;BME280;13354;48.174;11.566;2023-04-24T10:59:38;95032.34;;;10.60;80.90
25420;BME280;13354;48.174;11.566;2023-04-24T11:02:03;95019.34;;;10.46;82.70
25420;BME280;13354;48.174;11.566;2023-04-24T11:04:32;95004.06;;;10.21;84.47
25420;BME280;13354;48.174;11.566;2023-04-24T11:06:57;94997.56;;;10.24;84.36
25420;BME280;13354;48.174;11.566;2023-04-24T11:09:23;94999.59;;;10.15;86.05
25420;BME280;13354;48.174;11.566;2023-04-24T11:11:51;94989.44;;;10.38;86.22
25420;BME280;13354;48.174;11.566;2023-04-24T11:14:27;94984.72;;;10.40;86.78
25420;BME280;13354;48.174;11.566;2023-04-24T11:16:53;94977.19;;;10.51;83.39
25420;BME280;13354;48.174;11.566;2023-04-24T11:19:20;94979.13;;;10.75;83.56
25420;BME280;13354;48.174;11.566;2023-04-24T11:27:23;94968.00;;;12.37;74.59
25420;BME280;13354;48.174;11.566;2023-04-24T11:32:28;94980.06;;;13.24;71.22
25420;BME280;13354;48.174;11.566;2023-04-24T11:34:54;94992.94;;;12.91;70.35
25420;BME280;13354;48.174;11.566;2023-04-24T11:37:21;94982.75;;;12.69;70.48
25420;BME280;13354;48.174;11.566;2023-04-24T11:39:46;94990.97;;;12.68;68.53
25420;BME280;13354;48.174;11.566;2023-04-24T11:42:14;94990.03;;;12.74;66.98
25420;BME280;13354;48.174;11.566;2023-04-24T11:44:39;94992.34;;;13.07;65.65
25420;BME280;13354;48.174;11.566;2023-04-24T11:47:06;94990.16;;;13.16;65.37
25420;BME280;13354;48.174;11.566;2023-04-24T11:49:36;94999.19;;;13.33;63.90
25420;BME280;13354;48.174;11.566;2023-04-24T11:52:01;94990.06;;;13.83;62.88
25420;BME280;13354;48.174;11.566;2023-04-24T11:54:26;94984.06;;;14.22;61.20
25420;BME280;13354;48.174;11.566;2023-04-24T11:56:52;94982.59;;;14.62;61.33
25420;BME280;13354;48.174;11.566;2023-04-24T11:59:17;94976.50;;;14.90;60.92
25420;BME280;13354;48.174;11.566;2023-04-24T12:01:45;94972.66;;;14.97;60.29
25420;BME280;13354;48.174;11.566;2023-04-24T12:04:11;94979.44;;;14.77;59.63
25420;BME280;13354;48.174;11.566;2023-04-24T12:06:36;94973.44;;;14.69;58.46
25420;BME280;13354;48.174;11.566;2023-04-24T12:09:01;94983.94;;;13.94;61.37
25420;BME280;13354;48.174;11.566;2023-04-24T12:11:27;94982.06;;;13.71;60.62
25420;BME280;13354;48.174;11.566;2023-04-24T12:13:52;94972.38;;;13.46;61.48
25420;BME280;13354;48.174;11.566;2023-04-24T12:16:18;94974.56;;;13.38;62.26
25420;BME280;13354;48.174;11.566;2023-04-24T12:18:44;94985.91;;;13.45;61.55
25420;BME280;13354;48.174;11.566;2023-04-24T12:23:42;94968.38;;;13.56;58.60
25420;BME280;13354;48.174;11.566;2023-04-24T12:26:07;94959.84;;;13.77;58.12
25420;BME280;13354;48.174;11.566;2023-04-24T12:28:36;94957.66;;;13.74;58.55
25420;BME280;13354;48.174;11.566;2023-04-24T12:31:01;94961.50;;;13.90;58.36
25420;BME280;13354;48.174;11.566;2023-04-24T12:33:27;94957.56;;;13.92;57.32
25420;BME280;13354;48.174;11.566;2023-04-24T12:35:52;94957.91;;;14.08;56.90
25420;BME280;13354;48.174;11.566;2023-04-24T12:38:25;94948.06;;;14.43;56.72
25420;BME280;13354;48.174;11.566;2023-04-24T12:41:01;94952.09;;;14.58;54.56
25420;BME280;13354;48.174;11.566;2023-04-24T12:43:26;94939.19;;;14.90;54.45
25420;BME280;13354;48.174;11.566;2023-04-24T12:45:52;94945.66;;;14.94;49.80
25420;BME280;13354;48.174;11.566;2023-04-24T12:48:17;94925.38;;;14.93;49.64
25420;BME280;13354;48.174;11.566;2023-04-24T12:50:42;94950.31;;;14.98;50.44
25420;BME280;13354;48.174;11.566;2023-04-24T12:53:08;94946.41;;;14.78;51.31
25420;BME280;13354;48.174;11.566;2023-04-24T12:55:34;94944.19;;;14.86;51.89
25420;BME280;13354;48.174;11.566;2023-04-24T12:57:59;94949.16;;;14.83;52.21
25420;BME280;13354;48.174;11.566;2023-04-24T13:00:24;94959.28;;;14.69;52.36